Time;durP1;ratioP1;P1;durP2;ratioP2;P2;SDS_P1;SDS_P2;PMS_P1;PMS_P2;Temp;Humidity;BMP_temperature;BMP_pressure;BME280_temperature;BME280_humidity;BME280_pressure;Samples;Min_cycle;Max_cycle;Signal;HPM_P1;HPM_P2
2021/12/16 00:09:34;;;;;;;21.93;14.83;;;;;;;5.49;67.60;95553.66;5109688;28;20196;-75
2021/12/16 00:31:26;;;;;;;20.40;12.90;;;;;;;5.37;67.47;95564.47;5026578;28;20258;-75
2021/12/16 00:34:01;;;;;;;19.93;13.23;;;;;;;5.32;67.42;95553.78;5033609;28;20555;-75
2021/12/16 00:36:31;;;;;;;19.23;12.40;;;;;;;5.37;67.08;95566.19;5032888;28;20187;-76
2021/12/16 00:38:58;;;;;;;18.73;11.67;;;;;;;5.36;67.12;95564.56;5047178;28;20596;-75
2021/12/16 00:41:26;;;;;;;16.57;11.37;;;;;;;5.12;67.22;95523.63;5047122;28;20202;-76
2021/12/16 00:44:01;;;;;;;17.17;11.03;;;;;;;5.22;67.35;95545.03;5043862;28;20569;-74
2021/12/16 00:46:55;;;;;;;17.13;11.87;;;;;;;5.36;67.32;95565.38;5031138;28;20222;-75
2021/12/16 00:49:32;;;;;;;17.67;11.87;;;;;;;5.38;67.17;95570.34;5046352;28;20713;-74
2021/12/16 00:57:28;;;;;;;17.90;11.77;;;;;;;5.39;66.96;95565.19;5039262;28;20203;-75
2021/12/16 00:59:59;;;;;;;18.43;11.93;;;;;;;5.32;67.11;95552.97;5059595;28;20369;-75
2021/12/16 01:02:44;;;;;;;15.40;11.27;;;;;;;5.41;66.90;95565.13;5102576;28;20205;-75
2021/12/16 01:33:43;;;;;;;17.33;10.97;;;;;;;5.41;66.87;95532.16;4995819;28;20261;-75
2021/12/16 01:36:18;;;;;;;17.40;10.80;;;;;;;5.34;66.82;95525.78;4988378;28;20199;-76
2021/12/16 01:47:20;;;;;;;18.30;11.57;;;;;;;5.37;66.80;95535.75;4850368;29;20767;-75
2021/12/16 01:49:57;;;;;;;19.67;11.97;;;;;;;4.42;66.76;95374.53;4909417;29;20207;-75
2021/12/16 01:55:14;;;;;;;14.73;11.03;;;;;;;5.40;66.86;95528.00;4911031;28;20647;-75
2021/12/16 01:57:46;;;;;;;20.30;11.53;;;;;;;5.40;66.79;95525.47;4945400;28;20683;-76
2021/12/16 02:00:17;;;;;;;19.27;11.37;;;;;;;5.42;66.77;95521.91;4945840;28;20301;-73
2021/12/16 02:02:47;;;;;;;18.97;11.37;;;;;;;5.46;66.75;95528.44;4944004;28;20691;-75
2021/12/16 02:05:36;;;;;;;18.53;11.83;;;;;;;5.48;66.67;95521.59;4945539;28;20400;-75
2021/12/16 02:08:21;;;;;;;16.80;11.07;;;;;;;5.51;66.64;95520.56;4904980;29;20223;-75
2021/12/16 02:27:15;;;;;;;17.23;10.37;;;;;;;5.14;66.46;95455.88;4866725;29;20321;-74
2021/12/16 02:27:48;;;;;;;14.87;9.77;;;;;;;5.61;66.27;95509.00;5044617;28;20245;-74
2021/12/16 02:33:18;;;;;;;14.57;9.20;;;;;;;5.23;66.11;95445.25;5047110;28;20305;-76
2021/12/16 02:35:47;;;;;;;15.07;10.23;;;;;;;5.51;66.06;95483.34;5045162;28;20281;-75
2021/12/16 02:38:19;;;;;;;14.07;9.67;;;;;;;5.72;66.08;95514.28;5044074;28;20241;-75
2021/12/16 02:40:48;;;;;;;16.13;9.97;;;;;;;5.75;66.19;95515.84;5032082;28;20609;-75
2021/12/16 02:43:55;;;;;;;16.27;9.67;;;;;;;5.82;65.98;95519.63;5032012;28;20581;-74
2021/12/16 02:49:06;;;;;;;13.13;8.83;;;;;;;5.75;65.85;95500.63;5046526;28;20237;-74
2021/12/16 02:51:33;;;;;;;16.00;9.90;;;;;;;5.88;65.82;95519.31;5088170;28;20196;-74
2021/12/16 02:54:05;;;;;;;14.67;10.27;;;;;;;5.90;65.72;95522.56;5103432;28;20695;-75
2021/12/16 02:56:34;;;;;;;13.50;9.03;;;;;;;5.92;65.80;95522.53;5099742;28;20224;-75
2021/12/16 02:59:01;;;;;;;13.60;8.90;;;;;;;5.77;65.79;95494.53;5099327;28;20288;-76
2021/12/16 03:01:32;;;;;;;13.67;8.63;;;;;;;5.96;65.77;95527.31;5101957;28;20193;-74
2021/12/16 03:04:05;;;;;;;15.77;9.23;;;;;;;5.99;65.59;95521.22;5097672;28;20288;-74
2021/12/16 03:06:32;;;;;;;12.97;9.40;;;;;;;5.96;65.60;95518.91;5102459;28;20228;-74
2021/12/16 03:09:04;;;;;;;14.33;9.90;;;;;;;5.99;65.57;95513.63;5098633;28;20243;-76
2021/12/16 03:11:41;;;;;;;12.47;8.87;;;;;;;6.05;65.53;95520.09;5098744;28;20209;-74
2021/12/16 03:14:24;;;;;;;12.77;9.13;;;;;;;6.02;65.59;95516.00;5103405;28;20200;-77
2021/12/16 03:17:06;;;;;;;12.90;8.60;;;;;;;6.09;65.45;95516.44;5112137;28;20212;-76
2021/12/16 03:19:45;;;;;;;13.17;9.00;;;;;;;6.09;65.41;95514.72;5108037;28;20257;-74
2021/12/16 03:22:23;;;;;;;16.03;9.70;;;;;;;6.12;65.54;95521.34;5105641;28;20192;-74
2021/12/16 03:27:59;;;;;;;13.80;9.13;;;;;;;6.14;65.63;95525.44;5105238;28;20224;-74
2021/12/16 03:30:55;;;;;;;14.93;9.40;;;;;;;5.93;65.43;95486.06;5099209;28;20221;-74
2021/12/16 03:36:26;;;;;;;15.13;9.80;;;;;;;6.16;65.57;95530.41;5027478;28;20237;-76
2021/12/16 03:38:57;;;;;;;12.43;9.00;;;;;;;5.94;65.49;95493.59;5028111;28;20200;-75
2021/12/16 03:41:26;;;;;;;14.00;9.00;;;;;;;6.11;65.51;95528.13;5027814;28;20202;-75
2021/12/16 03:43:56;;;;;;;13.53;9.60;;;;;;;6.21;65.60;95534.31;5028052;28;20204;-75
2021/12/16 03:46:26;;;;;;;12.63;8.77;;;;;;;6.21;65.41;95531.75;5027760;28;20195;-75
2021/12/16 03:48:59;;;;;;;13.33;9.23;;;;;;;6.23;65.33;95535.03;5028622;28;20206;-75
2021/12/16 03:51:30;;;;;;;14.90;8.60;;;;;;;5.98;65.34;95492.50;5028767;28;20681;-74
2021/12/16 03:54:00;;;;;;;11.20;8.03;;;;;;;6.03;65.25;95498.13;5028803;28;20184;-74
2021/12/16 03:56:30;;;;;;;14.33;9.90;;;;;;;6.21;65.38;95525.88;5027694;28;20196;-75
2021/12/16 03:58:57;;;;;;;11.10;8.63;;;;;;;6.15;65.26;95514.38;5027940;28;20227;-74
2021/12/16 04:01:28;;;;;;;12.77;8.90;;;;;;;6.28;65.26;95533.03;5027430;28;20199;-74
2021/12/16 04:03:57;;;;;;;13.37;8.47;;;;;;;6.27;65.35;95531.41;5027759;28;20884;-74
2021/12/16 04:06:25;;;;;;;12.87;8.73;;;;;;;6.01;65.16;95486.44;5027506;28;20224;-75
2021/12/16 04:08:54;;;;;;;13.57;9.43;;;;;;;6.29;65.25;95529.59;5027599;28;20192;-75
2021/12/16 04:11:26;;;;;;;14.57;9.03;;;;;;;6.09;65.37;95496.13;5042705;28;20289;-76
2021/12/16 04:13:57;;;;;;;14.17;8.80;;;;;;;6.32;65.20;95522.72;5099180;28;20205;-75
2021/12/16 04:16:27;;;;;;;14.27;10.00;;;;;;;6.31;65.25;95521.91;5098185;28;20192;-74
2021/12/16 04:18:55;;;;;;;12.70;9.20;;;;;;;6.32;65.21;95517.63;5099265;28;20236;-75
2021/12/16 04:21:25;;;;;;;12.17;8.90;;;;;;;6.25;65.26;95507.00;5106213;28;20200;-75
2021/12/16 04:23:53;;;;;;;13.70;9.07;;;;;;;6.28;65.25;95514.44;5096141;28;20258;-75
2021/12/16 04:26:20;;;;;;;11.33;8.53;;;;;;;6.34;65.22;95516.63;5103120;28;20184;-75
2021/12/16 04:28:47;;;;;;;12.33;8.47;;;;;;;6.35;65.26;95510.66;5108875;28;20228;-75
2021/12/16 04:31:15;;;;;;;14.87;8.93;;;;;;;6.36;65.23;95516.53;5102846;28;20193;-75
2021/12/16 04:33:42;;;;;;;13.77;9.37;;;;;;;6.12;65.35;95471.38;5100351;28;20212;-74
2021/12/16 04:36:11;;;;;;;13.00;9.07;;;;;;;6.36;65.36;95511.47;5099429;28;20269;-75
2021/12/16 04:38:41;;;;;;;12.13;9.70;;;;;;;6.32;65.31;95504.94;5099473;28;20201;-75
2021/12/16 04:41:11;;;;;;;17.83;11.67;;;;;;;6.36;65.33;95502.13;5098199;28;20575;-74
2021/12/16 04:43:40;;;;;;;12.87;10.30;;;;;;;6.30;65.56;95494.84;5101707;28;20185;-74
2021/12/16 04:46:09;;;;;;;12.27;9.57;;;;;;;6.39;65.50;95508.72;5100689;28;20181;-74
2021/12/16 04:48:40;;;;;;;13.73;9.23;;;;;;;6.40;65.56;95511.19;5101176;28;20654;-75
2021/12/16 04:51:07;;;;;;;12.17;8.90;;;;;;;6.24;65.38;95480.78;5098778;28;20262;-75
2021/12/16 04:53:35;;;;;;;12.57;9.73;;;;;;;6.39;65.40;95509.56;5103780;28;20185;-75
2021/12/16 04:56:03;;;;;;;12.27;9.57;;;;;;;6.41;65.42;95517.88;5106637;28;20688;-75
2021/12/16 04:58:31;;;;;;;13.77;8.97;;;;;;;6.39;65.80;95509.56;5103565;28;20194;-75
2021/12/16 05:00:58;;;;;;;13.60;9.33;;;;;;;6.44;65.65;95516.91;5101183;28;20640;-74
2021/12/16 05:03:26;;;;;;;12.47;9.17;;;;;;;6.44;65.56;95511.81;5104638;28;20193;-76
2021/12/16 05:05:55;;;;;;;12.53;9.10;;;;;;;6.39;65.66;95498.56;5101522;28;20665;-75
2021/12/16 05:08:22;;;;;;;14.73;9.83;;;;;;;6.45;65.60;95510.91;5099309;28;20229;-74
2021/12/16 05:10:52;;;;;;;12.23;9.20;;;;;;;6.45;65.64;95513.44;5106271;28;20206;-73
2021/12/16 05:13:23;;;;;;;13.27;10.07;;;;;;;6.43;65.65;95521.16;5105258;28;20260;-75
2021/12/16 05:15:50;;;;;;;13.10;9.50;;;;;;;6.46;65.57;95515.06;5097905;28;20194;-74
2021/12/16 05:18:22;;;;;;;13.43;9.40;;;;;;;6.40;65.86;95498.47;5103457;28;20193;-76
2021/12/16 05:20:49;;;;;;;14.83;9.83;;;;;;;6.47;65.90;95511.63;5099753;28;20266;-76
2021/12/16 05:26:16;;;;;;;12.97;9.43;;;;;;;6.47;66.01;95514.97;5094097;28;20642;-75
2021/12/16 05:28:47;;;;;;;12.73;8.93;;;;;;;6.46;65.95;95512.53;5101702;28;20706;-76
2021/12/16 05:31:15;;;;;;;13.40;9.00;;;;;;;6.25;66.06;95482.41;5103273;28;20221;-75
2021/12/16 05:33:43;;;;;;;14.67;9.17;;;;;;;6.45;66.11;95514.25;5100784;28;20201;-74
2021/12/16 05:36:10;;;;;;;14.20;9.30;;;;;;;6.25;65.98;95482.41;5102403;28;20683;-76
2021/12/16 05:38:38;;;;;;;12.40;9.10;;;;;;;6.45;66.23;95516.81;5096966;28;20212;-75
2021/12/16 05:41:10;;;;;;;12.00;8.63;;;;;;;6.46;66.14;95513.34;5104139;28;20548;-74
2021/12/16 05:43:38;;;;;;;12.87;9.40;;;;;;;6.47;66.23;95516.69;5100367;28;20203;-75
2021/12/16 05:46:06;;;;;;;11.57;8.67;;;;;;;6.21;66.14;95467.47;5096709;28;20220;-75
2021/12/16 05:48:36;;;;;;;12.87;8.73;;;;;;;6.23;65.98;95476.63;5106242;28;20327;-75
2021/12/16 05:51:07;;;;;;;13.00;9.60;;;;;;;6.38;66.11;95500.28;5098183;28;20196;-78
2021/12/16 05:53:35;;;;;;;12.63;8.87;;;;;;;6.49;66.25;95517.44;5099532;28;20202;-75
2021/12/16 05:56:05;;;;;;;13.67;8.93;;;;;;;6.48;66.09;95516.63;5099449;28;20326;-77
2021/12/16 05:58:32;;;;;;;13.43;9.03;;;;;;;5.69;66.20;95389.31;5102727;28;20563;-74
2021/12/16 06:01:03;;;;;;;13.57;8.07;;;;;;;6.42;66.16;95506.00;5098954;28;20189;-77
2021/12/16 06:03:32;;;;;;;12.97;9.37;;;;;;;6.48;66.12;95511.53;5096932;28;20198;-75
2021/12/16 06:05:59;;;;;;;12.63;8.80;;;;;;;6.48;66.10;95514.09;5106752;28;20185;-75
2021/12/16 06:08:26;;;;;;;12.73;9.17;;;;;;;6.38;66.08;95497.75;5096104;28;20224;-72
2021/12/16 06:13:45;;;;;;;11.33;8.83;;;;;;;6.50;66.06;95517.34;5104322;28;20590;-75
2021/12/16 06:27:13;;;;;;;10.20;8.03;;;;;;;6.50;65.79;95519.06;5101719;28;20180;-75
2021/12/16 06:29:44;;;;;;;10.40;8.03;;;;;;;6.30;65.66;95479.59;5099743;28;20198;-74
2021/12/16 06:32:11;;;;;;;12.47;7.77;;;;;;;6.52;65.84;95510.44;5104353;28;20196;-73
2021/12/16 06:34:38;;;;;;;10.00;7.87;;;;;;;6.54;65.78;95511.16;5104127;28;20193;-72
2021/12/16 06:37:06;;;;;;;10.07;7.50;;;;;;;6.45;65.68;95498.19;5101246;28;20185;-73
2021/12/16 06:39:33;;;;;;;9.10;7.53;;;;;;;6.54;65.83;95515.44;5101428;28;20257;-74
2021/12/16 06:42:00;;;;;;;9.83;7.60;;;;;;;6.29;65.74;95470.34;5104204;28;20564;-72
2021/12/16 06:44:31;;;;;;;7.70;5.97;;;;;;;6.53;65.60;95506.19;5105109;28;20192;-72
2021/12/16 06:47:05;;;;;;;13.20;7.50;;;;;;;6.33;65.53;95473.53;5099124;28;20198;-74
2021/12/16 06:49:33;;;;;;;9.33;6.43;;;;;;;6.54;65.79;95507.81;5103708;28;20228;-72
2021/12/16 06:52:03;;;;;;;9.90;7.87;;;;;;;6.08;65.63;95429.28;5102370;28;20690;-74
2021/12/16 06:54:36;;;;;;;10.33;7.73;;;;;;;6.58;65.53;95508.44;5103192;28;20181;-73
2021/12/16 06:57:17;;;;;;;13.70;7.33;;;;;;;6.59;65.40;95505.78;5100470;28;20281;-73
2021/12/16 06:59:53;;;;;;;10.63;7.57;;;;;;;6.60;65.38;95504.06;5099305;28;20206;-74
2021/12/16 07:02:40;;;;;;;11.20;7.90;;;;;;;6.44;65.11;95478.78;5096887;28;20189;-73
2021/12/16 07:05:10;;;;;;;10.03;7.80;;;;;;;6.63;65.10;95503.88;5101730;28;20208;-76
2021/12/16 07:07:37;;;;;;;11.90;7.27;;;;;;;6.71;65.08;95511.88;5100964;28;20232;-74
2021/12/16 07:10:07;;;;;;;8.30;6.80;;;;;;;6.75;64.92;95510.75;5101600;28;20193;-75
2021/12/16 07:12:38;;;;;;;8.50;7.00;;;;;;;6.78;64.99;95510.59;5102054;28;20185;-74
2021/12/16 07:15:07;;;;;;;9.07;7.30;;;;;;;6.81;64.67;95507.84;5106345;28;20193;-72
2021/12/16 07:17:36;;;;;;;9.63;7.40;;;;;;;6.85;64.69;95508.47;5101073;28;20197;-74
2021/12/16 07:20:04;;;;;;;6.50;5.60;;;;;;;6.80;64.46;95490.97;5100565;28;20197;-72
2021/12/16 07:22:31;;;;;;;9.07;7.03;;;;;;;6.92;64.35;95512.28;5103241;28;20193;-72
2021/12/16 07:24:58;;;;;;;7.83;6.27;;;;;;;6.96;64.16;95504.34;5097291;28;20202;-73
2021/12/16 07:27:25;;;;;;;8.57;6.40;;;;;;;7.01;64.03;95506.59;5098900;28;20189;-73
2021/12/16 07:29:51;;;;;;;7.63;6.20;;;;;;;7.04;63.99;95516.59;5097388;28;20200;-73
2021/12/16 07:32:18;;;;;;;8.33;6.53;;;;;;;7.10;63.85;95510.31;5100861;28;20207;-75
2021/12/16 07:34:47;;;;;;;8.17;6.17;;;;;;;7.15;63.70;95521.00;5099879;28;20198;-73
2021/12/16 07:37:13;;;;;;;6.50;5.90;;;;;;;7.19;63.59;95517.34;5097777;28;20201;-75
2021/12/16 07:39:43;;;;;;;9.60;7.13;;;;;;;7.22;63.31;95522.25;5100517;28;20205;-73
2021/12/16 07:42:14;;;;;;;7.03;5.87;;;;;;;7.27;63.01;95520.22;5097853;28;20641;-73
2021/12/16 07:44:41;;;;;;;7.90;5.77;;;;;;;7.11;63.13;95491.56;5100784;28;20695;-73
2021/12/16 07:47:10;;;;;;;8.70;6.17;;;;;;;7.36;63.21;95521.38;5102608;28;20204;-74
2021/12/16 07:49:39;;;;;;;8.10;6.37;;;;;;;7.38;63.02;95520.34;5102220;28;20228;-77
2021/12/16 07:52:12;;;;;;;7.70;5.73;;;;;;;7.40;62.91;95528.72;5096223;28;20828;-75
2021/12/16 07:54:39;;;;;;;7.27;6.00;;;;;;;7.45;62.63;95528.41;5096603;28;20708;-74
2021/12/16 07:57:07;;;;;;;8.13;5.50;;;;;;;7.48;62.50;95529.03;5099739;28;20197;-75
2021/12/16 07:59:35;;;;;;;6.80;6.10;;;;;;;7.52;62.35;95522.03;5102798;28;20624;-73
2021/12/16 08:02:05;;;;;;;6.90;5.70;;;;;;;7.56;62.28;95523.47;5101725;28;20554;-77
2021/12/16 08:04:39;;;;;;;7.90;6.03;;;;;;;7.58;62.19;95534.34;5097970;28;20205;-76
2021/12/16 08:07:07;;;;;;;7.53;5.43;;;;;;;7.32;62.02;95485.13;5096829;28;20256;-73
2021/12/16 08:09:37;;;;;;;6.50;5.00;;;;;;;7.54;61.97;95518.47;5097744;28;20213;-72
2021/12/16 08:12:05;;;;;;;8.20;5.47;;;;;;;7.64;62.19;95531.44;5094024;28;20193;-74
2021/12/16 08:14:33;;;;;;;5.93;5.13;;;;;;;7.72;61.74;95536.81;5097967;28;20664;-73
2021/12/16 08:17:00;;;;;;;6.10;5.23;;;;;;;7.76;61.84;95540.78;5101812;28;20189;-73
2021/12/16 08:19:27;;;;;;;5.77;4.90;;;;;;;7.80;61.71;95537.13;5101674;28;20599;-73
2021/12/16 08:21:54;;;;;;;5.53;4.97;;;;;;;7.85;61.60;95531.75;5100221;28;20234;-72
2021/12/16 08:24:21;;;;;;;7.17;5.63;;;;;;;7.82;61.48;95516.69;5105978;28;20216;-72
2021/12/16 08:26:52;;;;;;;6.07;4.87;;;;;;;7.94;61.44;95530.31;5104245;28;20192;-73
2021/12/16 08:29:19;;;;;;;5.77;4.70;;;;;;;7.98;61.26;95529.19;5105130;28;20687;-71
2021/12/16 08:31:46;;;;;;;8.17;5.77;;;;;;;7.96;61.34;95521.69;5094564;28;20196;-73
2021/12/16 08:34:15;;;;;;;5.73;5.00;;;;;;;8.05;61.25;95531.25;5101514;28;20196;-73
2021/12/16 08:36:44;;;;;;;7.00;5.33;;;;;;;8.10;61.08;95527.59;5104081;28;20232;-72
2021/12/16 08:39:11;;;;;;;6.10;5.30;;;;;;;8.09;61.19;95526.78;5096581;28;20204;-72
2021/12/16 08:41:41;;;;;;;10.17;6.10;;;;;;;8.15;61.14;95531.44;5103484;28;20224;-75
2021/12/16 08:44:09;;;;;;;6.03;4.93;;;;;;;8.16;60.84;95529.72;5096243;28;20201;-75
2021/12/16 08:46:39;;;;;;;6.33;5.13;;;;;;;8.20;60.71;95531.97;5095795;28;20200;-73
2021/12/16 08:49:07;;;;;;;7.13;5.20;;;;;;;8.22;60.63;95535.22;5100889;28;20280;-74
2021/12/16 08:51:37;;;;;;;7.27;5.87;;;;;;;8.29;60.63;95523.72;5092631;28;20661;-74
2021/12/16 08:54:04;;;;;;;8.00;5.20;;;;;;;8.32;60.60;95524.41;5096798;28;20220;-72
2021/12/16 08:56:31;;;;;;;6.03;4.77;;;;;;;8.36;60.53;95525.84;5098288;28;20185;-73
2021/12/16 08:59:01;;;;;;;7.27;5.37;;;;;;;8.33;60.42;95514.09;5101996;28;20200;-72
2021/12/16 09:01:33;;;;;;;5.80;4.97;;;;;;;8.40;60.26;95517.91;5096747;28;20201;-73
2021/12/16 09:04:00;;;;;;;11.90;5.10;;;;;;;8.23;60.06;95475.69;5093495;28;20185;-71
2021/12/16 09:06:28;;;;;;;5.57;4.97;;;;;;;8.45;59.94;95502.31;5096752;28;20228;-74
2021/12/16 09:08:56;;;;;;;5.23;4.50;;;;;;;8.49;60.03;95489.25;5097256;28;20267;-70
2021/12/16 09:11:26;;;;;;;6.37;5.00;;;;;;;8.58;59.84;95492.09;5096353;28;20200;-70
2021/12/16 09:13:56;;;;;;;7.10;4.40;;;;;;;8.57;59.51;95481.06;5097989;28;20215;-71
2021/12/16 09:16:27;;;;;;;6.27;5.07;;;;;;;8.66;59.75;95494.91;5101069;28;20188;-74
2021/12/16 09:18:55;;;;;;;7.30;4.50;;;;;;;8.68;59.40;95488.81;5099168;28;20197;-72
2021/12/16 09:21:26;;;;;;;6.97;4.37;;;;;;;8.56;59.17;95471.00;5094216;28;20205;-72
2021/12/16 09:23:54;;;;;;;5.93;4.53;;;;;;;8.71;59.27;95491.13;5095358;28;20188;-72
2021/12/16 09:26:22;;;;;;;5.37;4.77;;;;;;;8.52;59.03;95452.53;5098514;28;20205;-74
2021/12/16 09:28:50;;;;;;;5.23;3.93;;;;;;;8.62;59.03;95468.81;5103854;28;20232;-75
2021/12/16 09:31:26;;;;;;;4.80;3.97;;;;;;;8.63;58.70;95462.78;5099692;28;20193;-75
2021/12/16 09:33:56;;;;;;;4.60;4.20;;;;;;;8.58;58.37;95441.09;5104566;28;20205;-74
2021/12/16 09:36:26;;;;;;;5.00;4.37;;;;;;;8.81;58.72;95486.22;5105271;28;20720;-72
2021/12/16 09:38:56;;;;;;;4.73;4.07;;;;;;;8.62;58.78;95458.63;5099722;28;20622;-75
2021/12/16 09:41:24;;;;;;;6.13;4.70;;;;;;;8.82;58.80;95477.63;5105100;28;20200;-73
2021/12/16 09:43:53;;;;;;;6.33;4.70;;;;;;;8.75;58.55;95476.44;5102107;28;20220;-74
2021/12/16 09:46:24;;;;;;;7.10;4.63;;;;;;;8.83;58.57;95481.00;5098623;28;20546;-74
2021/12/16 09:48:52;;;;;;;6.03;4.90;;;;;;;8.82;58.83;95480.19;5109233;28;20217;-72
2021/12/16 09:51:23;;;;;;;7.77;4.90;;;;;;;8.83;58.89;95473.34;5103874;28;20327;-75
2021/12/16 09:53:52;;;;;;;6.20;4.87;;;;;;;8.82;58.79;95480.19;5098711;28;20572;-73
2021/12/16 09:56:20;;;;;;;8.10;5.13;;;;;;;8.82;58.84;95475.09;5101902;28;20206;-72
2021/12/16 09:58:50;;;;;;;5.43;4.43;;;;;;;8.79;59.09;95476.09;5107399;28;20185;-73
2021/12/16 10:01:19;;;;;;;7.77;5.13;;;;;;;8.68;59.13;95462.47;5098877;28;20652;-74
2021/12/16 10:03:49;;;;;;;6.23;4.90;;;;;;;8.77;59.38;95459.31;5099427;28;20196;-74
2021/12/16 10:06:17;;;;;;;5.70;4.97;;;;;;;8.58;59.05;95423.25;5102210;28;20198;-75
2021/12/16 10:08:46;;;;;;;6.37;5.33;;;;;;;8.64;59.31;95433.03;5106434;28;20216;-72
2021/12/16 10:11:13;;;;;;;8.67;4.93;;;;;;;8.86;59.22;95465.50;5102030;28;20287;-73
2021/12/16 10:13:46;;;;;;;6.17;5.20;;;;;;;8.86;59.29;95466.31;5096142;28;20619;-74
2021/12/16 10:18:58;;;;;;;5.20;4.70;;;;;;;8.90;59.19;95456.69;5104251;28;20179;-75
2021/12/16 10:21:27;;;;;;;6.10;5.47;;;;;;;8.93;59.25;95451.34;5098135;28;20595;-75
2021/12/16 10:23:56;;;;;;;5.83;5.10;;;;;;;8.95;59.33;95444.44;5105671;28;20263;-74
2021/12/16 10:26:26;;;;;;;5.73;5.13;;;;;;;8.90;59.41;95431.19;5103900;28;20201;-76
2021/12/16 10:28:58;;;;;;;6.53;4.97;;;;;;;9.01;59.26;95437.13;5100949;28;20209;-76
2021/12/16 10:31:27;;;;;;;5.47;4.90;;;;;;;8.97;59.69;95430.63;5101232;28;20254;-73
2021/12/16 10:33:57;;;;;;;5.90;5.30;;;;;;;9.08;59.24;95434.16;5097834;28;20201;-73
2021/12/16 10:36:30;;;;;;;7.47;4.83;;;;;;;9.03;59.43;95420.00;5101312;28;20201;-73
2021/12/16 10:39:01;;;;;;;5.53;4.90;;;;;;;9.11;59.34;95432.22;5107053;28;20703;-73
2021/12/16 10:41:30;;;;;;;7.00;5.77;;;;;;;9.11;59.47;95427.09;5102361;28;20209;-73
2021/12/16 10:44:03;;;;;;;6.83;5.50;;;;;;;9.13;59.50;95421.88;5108490;28;20207;-72
2021/12/16 10:46:37;;;;;;;5.60;5.10;;;;;;;8.91;59.48;95392.00;5109485;28;20196;-74
2021/12/16 10:49:07;;;;;;;5.53;4.73;;;;;;;9.14;59.60;95423.50;5108108;28;20217;-75
2021/12/16 10:51:37;;;;;;;6.37;5.43;;;;;;;9.13;59.48;95417.59;5111784;28;20557;-75
2021/12/16 10:54:11;;;;;;;7.27;5.10;;;;;;;9.13;59.53;95426.97;5113459;28;20205;-76
2021/12/16 10:56:57;;;;;;;6.83;5.20;;;;;;;9.10;59.86;95420.34;5103519;28;20185;-75
2021/12/16 10:59:32;;;;;;;5.03;4.53;;;;;;;9.08;59.80;95423.97;5102931;28;20204;-73
2021/12/16 11:02:12;;;;;;;6.90;5.60;;;;;;;9.03;59.62;95419.19;5099050;28;20197;-76
2021/12/16 11:04:45;;;;;;;6.13;4.90;;;;;;;9.02;59.85;95422.63;5106141;28;20207;-73
2021/12/16 11:07:19;;;;;;;7.60;5.17;;;;;;;8.77;59.68;95386.16;5102398;28;20236;-73
2021/12/16 11:10:12;;;;;;;5.07;4.57;;;;;;;8.96;59.95;95415.44;5103049;28;20220;-74
2021/12/16 11:12:50;;;;;;;6.40;5.17;;;;;;;8.94;59.98;95417.31;5105685;28;20655;-75
2021/12/16 11:15:21;;;;;;;4.30;3.90;;;;;;;8.85;60.09;95406.03;5101656;28;20192;-73
2021/12/16 11:17:50;;;;;;;6.23;5.17;;;;;;;8.87;60.18;95413.56;5105557;28;20200;-72
2021/12/16 11:20:31;;;;;;;5.77;4.47;;;;;;;8.84;60.29;95409.47;5101894;28;20628;-73
2021/12/16 11:23:00;;;;;;;8.70;5.83;;;;;;;8.76;60.18;95401.53;5112170;28;20682;-73
2021/12/16 11:25:32;;;;;;;6.23;5.03;;;;;;;8.81;60.25;95407.16;5106084;28;20183;-74
2021/12/16 11:28:13;;;;;;;6.63;5.30;;;;;;;8.78;60.23;95409.91;5102804;28;20211;-73
2021/12/16 11:30:44;;;;;;;7.53;5.17;;;;;;;8.75;60.37;95408.38;5098841;28;20670;-74
2021/12/16 11:33:32;;;;;;;6.70;5.20;;;;;;;8.61;60.57;95395.00;5102557;28;20620;-74
2021/12/16 11:36:18;;;;;;;8.97;5.70;;;;;;;8.60;60.44;95388.28;5098424;28;20193;-72
2021/12/16 11:38:48;;;;;;;6.03;5.17;;;;;;;8.66;60.47;95403.94;5112458;28;20192;-72
2021/12/16 11:41:35;;;;;;;6.47;5.20;;;;;;;8.56;60.38;95390.22;5101099;28;20668;-73
2021/12/16 11:44:13;;;;;;;5.90;5.30;;;;;;;8.60;60.58;95411.22;5103129;28;20678;-72
2021/12/16 11:46:43;;;;;;;5.67;4.87;;;;;;;8.09;60.40;95335.72;5098018;28;20192;-73
2021/12/16 11:49:15;;;;;;;6.37;4.90;;;;;;;8.54;60.57;95397.97;5108302;28;20205;-73
2021/12/16 11:51:44;;;;;;;6.30;5.67;;;;;;;8.54;60.54;95409.91;5103104;28;20193;-73
2021/12/16 11:54:20;;;;;;;6.77;5.10;;;;;;;8.51;60.65;95400.75;5096024;28;20560;-75
2021/12/16 11:56:56;;;;;;;7.27;6.03;;;;;;;8.51;60.55;95407.59;5106733;28;20570;-74
2021/12/16 11:59:29;;;;;;;5.20;4.70;;;;;;;8.49;60.70;95401.75;5100793;28;20193;-72
2021/12/16 12:01:57;;;;;;;6.87;5.10;;;;;;;8.47;60.79;95406.97;5102025;28;20197;-72
2021/12/16 12:04:29;;;;;;;8.70;5.37;;;;;;;8.48;60.51;95395.03;5096150;28;20680;-73
2021/12/16 12:06:56;;;;;;;6.33;4.70;;;;;;;8.46;60.60;95390.06;5096432;28;20633;-72
2021/12/16 12:09:34;;;;;;;7.33;5.37;;;;;;;8.44;60.81;95394.44;5104574;28;20359;-74
2021/12/16 12:12:03;;;;;;;7.10;5.53;;;;;;;8.28;60.71;95366.63;5110002;28;20660;-73
2021/12/16 12:14:34;;;;;;;7.00;5.40;;;;;;;8.40;60.88;95384.56;5099168;28;20185;-72
2021/12/16 12:17:06;;;;;;;7.23;5.67;;;;;;;8.38;60.99;95389.78;5108537;28;20593;-72
2021/12/16 12:19:33;;;;;;;8.57;5.87;;;;;;;8.30;61.03;95379.28;5097770;28;20682;-72
2021/12/16 12:22:01;;;;;;;8.53;5.90;;;;;;;8.29;61.04;95380.22;5102474;28;20193;-72
2021/12/16 12:24:32;;;;;;;6.43;5.50;;;;;;;8.09;61.22;95347.66;5101855;28;20192;-72
2021/12/16 12:27:03;;;;;;;5.67;4.83;;;;;;;8.35;61.28;95389.97;5095925;28;20284;-72
2021/12/16 12:29:33;;;;;;;6.00;5.40;;;;;;;8.34;60.82;95390.88;5102806;28;20213;-73
2021/12/16 12:32:04;;;;;;;6.80;5.93;;;;;;;8.34;61.18;95392.63;5099825;28;20189;-72
2021/12/16 12:34:32;;;;;;;7.03;5.87;;;;;;;8.35;61.12;95384.06;5098843;28;20569;-72
2021/12/16 12:37:01;;;;;;;8.13;5.80;;;;;;;8.35;61.20;95392.50;5102542;28;20193;-74
2021/12/16 12:39:33;;;;;;;6.27;5.50;;;;;;;8.36;61.07;95394.13;5104503;28;20204;-73
2021/12/16 12:42:01;;;;;;;6.37;5.30;;;;;;;8.36;61.05;95393.31;5098918;28;20191;-73
2021/12/16 12:44:28;;;;;;;6.30;5.70;;;;;;;8.34;60.90;95395.97;5095492;28;20193;-72
2021/12/16 12:46:56;;;;;;;7.00;5.50;;;;;;;8.34;61.20;95402.81;5101516;28;20193;-73
2021/12/16 12:49:26;;;;;;;7.27;5.83;;;;;;;8.31;61.10;95403.84;5107198;28;20220;-74
2021/12/16 12:52:03;;;;;;;7.60;6.20;;;;;;;8.29;61.22;95395.50;5103151;28;20579;-73
2021/12/16 12:54:32;;;;;;;8.60;6.10;;;;;;;8.29;61.14;95393.75;5092665;28;20189;-73
2021/12/16 12:57:17;;;;;;;6.67;5.63;;;;;;;8.28;61.21;95397.19;5099040;28;20675;-72
2021/12/16 12:59:45;;;;;;;7.33;5.83;;;;;;;8.28;61.21;95388.75;5098205;28;20185;-73
2021/12/16 13:02:16;;;;;;;7.47;6.13;;;;;;;7.88;61.30;95340.56;5097632;28;20200;-72
2021/12/16 13:04:48;;;;;;;6.87;5.83;;;;;;;8.23;61.33;95386.53;5103841;28;20242;-71
2021/12/16 13:07:16;;;;;;;8.70;6.30;;;;;;;7.94;61.22;95335.03;5102852;28;20223;-72
2021/12/16 13:09:45;;;;;;;8.37;6.90;;;;;;;8.19;61.27;95377.47;5097449;28;20211;-73
2021/12/16 13:12:35;;;;;;;8.70;6.97;;;;;;;8.15;61.37;95378.59;5104997;28;20254;-72
2021/12/16 13:15:11;;;;;;;9.60;6.57;;;;;;;8.11;61.24;95377.16;5099459;28;20198;-72
2021/12/16 13:23:33;;;;;;;8.87;6.73;;;;;;;8.20;61.44;95388.47;5098568;28;20254;-73
2021/12/16 13:26:27;;;;;;;8.63;6.47;;;;;;;8.19;61.54;95387.66;5103272;28;20232;-72
2021/12/16 13:29:06;;;;;;;10.17;6.50;;;;;;;8.13;61.71;95380.44;5101132;28;20193;-72
2021/12/16 13:31:45;;;;;;;8.93;6.90;;;;;;;8.15;61.46;95391.31;5105760;28;20229;-72
2021/12/16 13:34:28;;;;;;;7.73;6.27;;;;;;;8.12;61.51;95383.91;5098498;28;20184;-72
2021/12/16 13:36:57;;;;;;;7.17;6.47;;;;;;;8.11;61.53;95391.66;5101243;28;20224;-72
2021/12/16 13:39:29;;;;;;;8.73;6.60;;;;;;;7.71;61.53;95323.88;5106664;28;20276;-73
2021/12/16 13:42:05;;;;;;;10.57;7.20;;;;;;;8.03;61.53;95374.34;5100531;28;20197;-72
2021/12/16 13:44:42;;;;;;;9.03;6.97;;;;;;;8.05;61.63;95387.78;5105025;28;20193;-71
2021/12/16 13:47:18;;;;;;;10.40;7.10;;;;;;;8.03;61.83;95392.16;5103693;28;20249;-73
2021/12/16 13:59:29;;;;;;;11.53;7.53;;;;;;;7.94;61.88;95390.25;5105239;28;20540;-72
2021/12/16 14:02:00;;;;;;;7.67;6.87;;;;;;;7.67;61.94;95349.66;5100034;28;20681;-72
2021/12/16 14:07:54;;;;;;;10.23;6.90;;;;;;;7.86;61.95;95395.03;5025450;28;20220;-73
2021/12/16 14:10:31;;;;;;;8.03;6.80;;;;;;;7.83;62.02;95401.19;5025930;28;20613;-73
2021/12/16 14:16:12;;;;;;;9.60;6.63;;;;;;;7.77;62.01;95404.13;5030291;28;20207;-75